sensor_id;sensor_type;location;lat;lon;timestamp;pressure;altitude;pressure_sealevel;temperature;humidity
11710;BME280;5911;51.036;6.972;2023-07-31T00:00:00;100398.44;;;19.11;100.00
11710;BME280;5911;51.036;6.972;2023-07-31T00:02:30;100394.75;;;19.12;100.00
11710;BME280;5911;51.036;6.972;2023-07-31T00:04:58;100398.66;;;19.09;100.00
11710;BME280;5911;51.036;6.972;2023-07-31T00:07:26;100378.16;;;19.02;100.00
11710;BME280;5911;51.036;6.972;2023-07-31T00:09:54;100396.41;;;19.13;100.00
11710;BME280;5911;51.036;6.972;2023-07-31T00:12:24;100389.03;;;19.15;100.00
11710;BME280;5911;51.036;6.972;2023-07-31T00:14:52;100396.41;;;19.13;100.00
11710;BME280;5911;51.036;6.972;2023-07-31T00:17:20;100393.06;;;19.11;100.00
11710;BME280;5911;51.036;6.972;2023-07-31T00:19:48;100403.41;;;19.14;100.00
11710;BME280;5911;51.036;6.972;2023-07-31T00:22:17;100407.47;;;19.10;100.00
11710;BME280;5911;51.036;6.972;2023-07-31T00:24:45;100398.66;;;19.09;100.00
11710;BME280;5911;51.036;6.972;2023-07-31T00:27:15;100389.97;;;18.92;100.00
11710;BME280;5911;51.036;6.972;2023-07-31T00:29:44;100393.84;;;19.05;100.00
11710;BME280;5911;51.036;6.972;2023-07-31T00:32:12;100394.50;;;19.07;100.00
11710;BME280;5911;51.036;6.972;2023-07-31T00:34:40;100368.59;;;18.92;100.00
11710;BME280;5911;51.036;6.972;2023-07-31T00:37:08;100393.91;;;19.11;100.00
11710;BME280;5911;51.036;6.972;2023-07-31T00:39:36;100398.44;;;19.11;100.00
11710;BME280;5911;51.036;6.972;2023-07-31T00:42:05;100399.72;;;19.15;100.00
11710;BME280;5911;51.036;6.972;2023-07-31T00:44:33;100393.06;;;19.11;100.00
11710;BME280;5911;51.036;6.972;2023-07-31T00:47:02;100396.03;;;19.16;100.00
11710;BME280;5911;51.036;6.972;2023-07-31T00:49:30;100398.63;;;19.24;100.00
11710;BME280;5911;51.036;6.972;2023-07-31T00:51:59;100396.50;;;19.19;100.00
11710;BME280;5911;51.036;6.972;2023-07-31T00:54:27;100388.84;;;19.16;100.00
11710;BME280;5911;51.036;6.972;2023-07-31T00:56:55;100374.56;;;19.09;100.00
11710;BME280;5911;51.036;6.972;2023-07-31T00:59:24;100368.75;;;19.06;100.00
11710;BME280;5911;51.036;6.972;2023-07-31T01:01:52;100383.31;;;19.18;100.00
11710;BME280;5911;51.036;6.972;2023-07-31T01:04:22;100381.75;;;19.09;100.00
11710;BME280;5911;51.036;6.972;2023-07-31T01:06:58;100338.91;;;18.87;100.00
11710;BME280;5911;51.036;6.972;2023-07-31T01:09:35;100365.97;;;19.14;100.00
11710;BME280;5911;51.036;6.972;2023-07-31T01:12:07;100362.28;;;19.15;100.00
11710;BME280;5911;51.036;6.972;2023-07-31T01:14:35;100346.06;;;19.02;100.00
11710;BME280;5911;51.036;6.972;2023-07-31T01:17:03;100356.09;;;19.14;100.00
11710;BME280;5911;51.036;6.972;2023-07-31T01:19:33;100359.34;;;19.10;100.00
11710;BME280;5911;51.036;6.972;2023-07-31T01:22:24;100372.63;;;19.18;100.00
11710;BME280;5911;51.036;6.972;2023-07-31T01:25:08;100358.25;;;19.04;100.00
11710;BME280;5911;51.036;6.972;2023-07-31T01:27:44;100372.25;;;19.21;100.00
11710;BME280;5911;51.036;6.972;2023-07-31T01:30:16;100377.59;;;19.21;100.00
11710;BME280;5911;51.036;6.972;2023-07-31T01:32:47;100362.56;;;19.20;100.00
11710;BME280;5911;51.036;6.972;2023-07-31T01:35:16;100370.59;;;19.20;100.00
11710;BME280;5911;51.036;6.972;2023-07-31T01:37:45;100369.19;;;19.24;100.00
11710;BME280;5911;51.036;6.972;2023-07-31T01:40:13;100374.34;;;19.25;100.00
11710;BME280;5911;51.036;6.972;2023-07-31T01:42:43;100363.84;;;19.24;100.00
11710;BME280;5911;51.036;6.972;2023-07-31T01:45:12;100364.47;;;19.26;100.00
11710;BME280;5911;51.036;6.972;2023-07-31T01:47:40;100368.56;;;19.22;100.00
11710;BME280;5911;51.036;6.972;2023-07-31T01:50:09;100351.13;;;19.11;100.00
11710;BME280;5911;51.036;6.972;2023-07-31T01:52:37;100362.81;;;19.25;100.00
11710;BME280;5911;51.036;6.972;2023-07-31T01:55:05;100356.00;;;19.22;100.00
11710;BME280;5911;51.036;6.972;2023-07-31T01:57:33;100362.81;;;19.25;100.00
11710;BME280;5911;51.036;6.972;2023-07-31T02:00:03;100351.03;;;19.19;100.00
11710;BME280;5911;51.036;6.972;2023-07-31T02:02:40;100285.44;;;18.87;100.00
11710;BME280;5911;51.036;6.972;2023-07-31T02:05:08;100358.28;;;19.25;100.00
11710;BME280;5911;51.036;6.972;2023-07-31T02:07:36;100363.72;;;19.32;100.00
11710;BME280;5911;51.036;6.972;2023-07-31T02:10:06;100341.88;;;19.28;100.00
11710;BME280;5911;51.036;6.972;2023-07-31T02:12:35;100329.63;;;19.19;100.00
11710;BME280;5911;51.036;6.972;2023-07-31T02:15:05;100347.31;;;19.35;100.00
11710;BME280;5911;51.036;6.972;2023-07-31T02:17:33;100339.53;;;19.40;100.00
11710;BME280;5911;51.036;6.972;2023-07-31T02:20:02;100334.56;;;19.37;100.00
11710;BME280;5911;51.036;6.972;2023-07-31T02:22:30;100298.09;;;19.15;100.00
11710;BME280;5911;51.036;6.972;2023-07-31T02:24:58;100310.97;;;19.26;100.00
11710;BME280;5911;51.036;6.972;2023-07-31T02:27:25;100335.84;;;19.41;100.00
11710;BME280;5911;51.036;6.972;2023-07-31T02:29:54;100331.13;;;19.43;100.00
11710;BME280;5911;51.036;6.972;2023-07-31T02:32:27;100327.72;;;19.49;100.00
11710;BME280;5911;51.036;6.972;2023-07-31T02:34:55;100336.75;;;19.48;100.00
11710;BME280;5911;51.036;6.972;2023-07-31T02:37:25;100331.78;;;19.45;100.00
11710;BME280;5911;51.036;6.972;2023-07-31T02:39:52;100332.41;;;19.47;100.00
11710;BME280;5911;51.036;6.972;2023-07-31T02:42:20;100304.44;;;19.28;100.00
11710;BME280;5911;51.036;6.972;2023-07-31T02:44:48;100298.25;;;19.28;100.00
11710;BME280;5911;51.036;6.972;2023-07-31T02:47:22;100331.41;;;19.48;100.00
11710;BME280;5911;51.036;6.972;2023-07-31T02:49:51;100308.25;;;19.41;100.00
11710;BME280;5911;51.036;6.972;2023-07-31T02:52:19;100278.44;;;19.22;100.00
11710;BME280;5911;51.036;6.972;2023-07-31T02:54:47;100312.78;;;19.40;100.00
11710;BME280;5911;51.036;6.972;2023-07-31T02:57:15;100322.38;;;19.49;100.00
11710;BME280;5911;51.036;6.972;2023-07-31T02:59:43;100277.22;;;19.25;100.00
11710;BME280;5911;51.036;6.972;2023-07-31T03:02:11;100297.78;;;19.39;100.00
11710;BME280;5911;51.036;6.972;2023-07-31T03:04:40;100322.84;;;19.53;100.00
11710;BME280;5911;51.036;6.972;2023-07-31T03:07:09;100291.38;;;19.40;100.00
11710;BME280;5911;51.036;6.972;2023-07-31T03:09:40;100263.84;;;19.25;100.00
11710;BME280;5911;51.036;6.972;2023-07-31T03:12:08;100313.19;;;19.58;100.00
11710;BME280;5911;51.036;6.972;2023-07-31T03:14:36;100302.50;;;19.58;100.00
11710;BME280;5911;51.036;6.972;2023-07-31T03:17:05;100307.84;;;19.58;100.00
11710;BME280;5911;51.036;6.972;2023-07-31T03:19:33;100297.16;;;19.58;100.00
11710;BME280;5911;51.036;6.972;2023-07-31T03:22:01;100284.94;;;19.49;100.00
11710;BME280;5911;51.036;6.972;2023-07-31T03:24:31;100290.31;;;19.56;100.00
11710;BME280;5911;51.036;6.972;2023-07-31T03:26:59;100289.25;;;19.50;100.00
11710;BME280;5911;51.036;6.972;2023-07-31T03:29:27;100274.53;;;19.40;100.00
11710;BME280;5911;51.036;6.972;2023-07-31T03:31:55;100297.97;;;19.59;100.00
11710;BME280;5911;51.036;6.972;2023-07-31T03:34:23;100278.25;;;19.45;100.00
11710;BME280;5911;51.036;6.972;2023-07-31T03:36:51;100272.09;;;19.45;100.00
11710;BME280;5911;51.036;6.972;2023-07-31T03:39:19;100288.94;;;19.60;100.00
11710;BME280;5911;51.036;6.972;2023-07-31T03:41:48;100294.03;;;19.55;100.00
11710;BME280;5911;51.036;6.972;2023-07-31T03:44:17;100295.91;;;19.54;100.00
11710;BME280;5911;51.036;6.972;2023-07-31T03:46:45;100269.78;;;19.42;100.00
11710;BME280;5911;51.036;6.972;2023-07-31T03:49:13;100289.06;;;19.52;100.00
11710;BME280;5911;51.036;6.972;2023-07-31T03:51:41;100272.03;;;19.38;100.00
11710;BME280;5911;51.036;6.972;2023-07-31T03:54:09;100283.75;;;19.37;100.00
11710;BME280;5911;51.036;6.972;2023-07-31T03:56:37;100291.81;;;19.44;100.00
11710;BME280;5911;51.036;6.972;2023-07-31T03:59:07;100276.09;;;19.34;100.00
11710;BME280;5911;51.036;6.972;2023-07-31T04:01:35;100279.09;;;19.46;100.00
11710;BME280;5911;51.036;6.972;2023-07-31T04:04:03;100279.91;;;19.46;100.00
11710;BME280;5911;51.036;6.972;2023-07-31T04:06:31;100279.47;;;19.43;100.00
11710;BME280;5911;51.036;6.972;2023-07-31T04:08:59;100275.97;;;19.42;100.00
11710;BME280;5911;51.036;6.972;2023-07-31T04:11:27;100275.97;;;19.42;100.00
11710;BME280;5911;51.036;6.972;2023-07-31T04:13:55;100272.91;;;19.45;100.00
11710;BME280;5911;51.036;6.972;2023-07-31T04:16:24;100267.47;;;19.53;100.00
11710;BME280;5911;51.036;6.972;2023-07-31T04:18:52;100268.50;;;19.52;100.00
11710;BME280;5911;51.036;6.972;2023-07-31T04:21:20;100264.34;;;19.50;100.00
11710;BME280;5911;51.036;6.972;2023-07-31T04:23:48;100261.09;;;19.54;100.00
11710;BME280;5911;51.036;6.972;2023-07-31T04:26:16;100259.81;;;19.50;100.00
11710;BME280;5911;51.036;6.972;2023-07-31T04:28:44;100256.97;;;19.52;100.00
11710;BME280;5911;51.036;6.972;2023-07-31T04:31:11;100264.81;;;19.53;100.00
11710;BME280;5911;51.036;6.972;2023-07-31T04:33:41;100268.13;;;19.55;100.00
11710;BME280;5911;51.036;6.972;2023-07-31T04:36:09;100262.78;;;19.55;100.00
11710;BME280;5911;51.036;6.972;2023-07-31T04:38:37;100257.00;;;19.58;100.00
11710;BME280;5911;51.036;6.972;2023-07-31T04:41:05;100261.09;;;19.54;100.00
11710;BME280;5911;51.036;6.972;2023-07-31T04:43:33;100257.41;;;19.55;100.00
11710;BME280;5911;51.036;6.972;2023-07-31T04:46:01;100256.59;;;19.55;100.00
11710;BME280;5911;51.036;6.972;2023-07-31T04:48:28;100257.00;;;19.58;100.00
11710;BME280;5911;51.036;6.972;2023-07-31T04:50:58;100246.72;;;19.55;100.00
11710;BME280;5911;51.036;6.972;2023-07-31T04:53:25;100243.44;;;19.60;100.00
11710;BME280;5911;51.036;6.972;2023-07-31T04:55:54;100254.97;;;19.60;100.00
11710;BME280;5911;51.036;6.972;2023-07-31T04:58:22;100250.25;;;19.62;100.00
11710;BME280;5911;51.036;6.972;2023-07-31T05:00:50;100222.25;;;19.44;100.00
11710;BME280;5911;51.036;6.972;2023-07-31T05:03:18;100252.94;;;19.62;100.00
11710;BME280;5911;51.036;6.972;2023-07-31T05:05:46;100241.22;;;19.63;100.00
11710;BME280;5911;51.036;6.972;2023-07-31T05:08:15;100237.13;;;19.67;100.00
11710;BME280;5911;51.036;6.972;2023-07-31T05:10:44;100234.47;;;19.67;100.00
11710;BME280;5911;51.036;6.972;2023-07-31T05:13:11;100220.38;;;19.59;100.00
11710;BME280;5911;51.036;6.972;2023-07-31T05:15:40;100216.59;;;19.75;100.00
11710;BME280;5911;51.036;6.972;2023-07-31T05:18:09;100218.41;;;19.67;100.00
11710;BME280;5911;51.036;6.972;2023-07-31T05:20:36;100216.41;;;19.76;100.00
11710;BME280;5911;51.036;6.972;2023-07-31T05:23:05;100225.69;;;19.80;100.00
11710;BME280;5911;51.036;6.972;2023-07-31T05:25:36;100203.59;;;19.72;100.00
11710;BME280;5911;51.036;6.972;2023-07-31T05:28:04;100214.81;;;19.82;100.00
11710;BME280;5911;51.036;6.972;2023-07-31T05:30:32;100215.44;;;19.84;100.00
11710;BME280;5911;51.036;6.972;2023-07-31T05:33:00;100205.38;;;19.86;100.00
11710;BME280;5911;51.036;6.972;2023-07-31T05:35:29;100156.34;;;19.57;100.00
11710;BME280;5911;51.036;6.972;2023-07-31T05:37:56;100198.56;;;19.90;100.00
11710;BME280;5911;51.036;6.972;2023-07-31T05:40:24;100190.53;;;19.90;100.00
11710;BME280;5911;51.036;6.972;2023-07-31T05:42:54;100166.56;;;19.75;100.00
11710;BME280;5911;51.036;6.972;2023-07-31T05:45:22;100183.72;;;19.87;100.00
11710;BME280;5911;51.036;6.972;2023-07-31T05:47:52;100186.41;;;19.87;100.00
11710;BME280;5911;51.036;6.972;2023-07-31T05:50:20;100178.59;;;19.86;100.00
11710;BME280;5911;51.036;6.972;2023-07-31T05:52:47;100169.50;;;19.87;100.00
11710;BME280;5911;51.036;6.972;2023-07-31T05:55:15;100161.69;;;19.85;100.00
11710;BME280;5911;51.036;6.972;2023-07-31T05:57:43;100172.00;;;19.88;100.00
11710;BME280;5911;51.036;6.972;2023-07-31T06:00:14;100178.19;;;19.89;100.00
11710;BME280;5911;51.036;6.972;2023-07-31T06:02:42;100170.16;;;19.89;100.00
11710;BME280;5911;51.036;6.972;2023-07-31T06:05:10;100176.75;;;19.93;100.00
11710;BME280;5911;51.036;6.972;2023-07-31T06:07:38;100165.81;;;19.88;100.00
11710;BME280;5911;51.036;6.972;2023-07-31T06:10:07;100177.16;;;19.90;100.00
11710;BME280;5911;51.036;6.972;2023-07-31T06:12:36;100181.47;;;19.84;100.00
11710;BME280;5911;51.036;6.972;2023-07-31T06:15:04;100170.59;;;19.64;100.00
11710;BME280;5911;51.036;6.972;2023-07-31T06:17:33;100182.53;;;19.62;100.00
11710;BME280;5911;51.036;6.972;2023-07-31T06:20:01;100183.75;;;19.59;100.00
11710;BME280;5911;51.036;6.972;2023-07-31T06:22:31;100158.50;;;19.47;100.00
11710;BME280;5911;51.036;6.972;2023-07-31T06:24:59;100177.13;;;19.55;100.00
11710;BME280;5911;51.036;6.972;2023-07-31T06:27:28;100159.63;;;19.53;100.00
11710;BME280;5911;51.036;6.972;2023-07-31T06:29:56;100169.22;;;19.47;100.00
11710;BME280;5911;51.036;6.972;2023-07-31T06:32:24;100176.69;;;19.52;100.00
11710;BME280;5911;51.036;6.972;2023-07-31T06:34:53;100162.50;;;19.51;100.00
11710;BME280;5911;51.036;6.972;2023-07-31T06:37:24;100167.88;;;19.58;100.00
11710;BME280;5911;51.036;6.972;2023-07-31T06:39:52;100168.69;;;19.58;100.00
11710;BME280;5911;51.036;6.972;2023-07-31T06:42:20;100168.13;;;19.63;100.00
11710;BME280;5911;51.036;6.972;2023-07-31T06:44:47;100167.94;;;19.64;100.00
11710;BME280;5911;51.036;6.972;2023-07-31T06:47:15;100143.13;;;19.49;100.00
11710;BME280;5911;51.036;6.972;2023-07-31T06:49:43;100159.47;;;19.61;100.00
11710;BME280;5911;51.036;6.972;2023-07-31T06:52:12;100165.00;;;19.59;100.00
11710;BME280;5911;51.036;6.972;2023-07-31T06:54:40;100164.38;;;19.57;100.00
11710;BME280;5911;51.036;6.972;2023-07-31T06:57:08;100159.44;;;19.54;100.00
11710;BME280;5911;51.036;6.972;2023-07-31T06:59:35;100168.31;;;19.61;100.00
11710;BME280;5911;51.036;6.972;2023-07-31T07:02:05;100131.09;;;19.39;100.00
11710;BME280;5911;51.036;6.972;2023-07-31T07:04:33;100169.59;;;19.65;100.00
11710;BME280;5911;51.036;6.972;2023-07-31T07:07:01;100139.06;;;19.60;100.00
11710;BME280;5911;51.036;6.972;2023-07-31T07:09:35;100160.16;;;19.70;100.00
11710;BME280;5911;51.036;6.972;2023-07-31T07:12:03;100157.06;;;19.73;100.00
11710;BME280;5911;51.036;6.972;2023-07-31T07:14:33;100171.09;;;19.75;100.00
11710;BME280;5911;51.036;6.972;2023-07-31T07:17:01;100161.19;;;19.75;100.00
11710;BME280;5911;51.036;6.972;2023-07-31T07:19:29;100137.66;;;19.64;100.00
11710;BME280;5911;51.036;6.972;2023-07-31T07:21:57;100155.03;;;19.75;100.00
11710;BME280;5911;51.036;6.972;2023-07-31T07:24:30;100139.75;;;19.69;100.00
11710;BME280;5911;51.036;6.972;2023-07-31T07:26:59;100150.94;;;19.79;100.00
11710;BME280;5911;51.036;6.972;2023-07-31T07:29:35;100157.31;;;19.78;100.00
11710;BME280;5911;51.036;6.972;2023-07-31T07:32:03;100144.31;;;19.75;100.00
11710;BME280;5911;51.036;6.972;2023-07-31T07:34:33;100116.06;;;19.65;100.00
11710;BME280;5911;51.036;6.972;2023-07-31T07:37:01;100161.84;;;19.77;100.00
11710;BME280;5911;51.036;6.972;2023-07-31T07:39:29;100162.41;;;19.73;100.00
11710;BME280;5911;51.036;6.972;2023-07-31T07:41:57;100169.59;;;19.65;100.00
11710;BME280;5911;51.036;6.972;2023-07-31T07:44:26;100149.09;;;19.51;100.00
11710;BME280;5911;51.036;6.972;2023-07-31T07:46:54;100158.16;;;19.50;100.00
11710;BME280;5911;51.036;6.972;2023-07-31T07:49:25;100162.59;;;19.43;100.00
11710;BME280;5911;51.036;6.972;2023-07-31T07:51:56;100155.19;;;19.45;100.00
11710;BME280;5911;51.036;6.972;2023-07-31T07:54:24;100133.69;;;19.32;100.00
11710;BME280;5911;51.036;6.972;2023-07-31T07:56:55;100164.97;;;19.53;100.00
11710;BME280;5911;51.036;6.972;2023-07-31T07:59:23;100158.06;;;19.44;100.00
11710;BME280;5911;51.036;6.972;2023-07-31T08:01:52;100135.69;;;19.23;100.00
11710;BME280;5911;51.036;6.972;2023-07-31T08:04:27;100154.19;;;19.46;100.00
11710;BME280;5911;51.036;6.972;2023-07-31T08:06:58;100166.19;;;19.50;100.00
11710;BME280;5911;51.036;6.972;2023-07-31T08:09:26;100150.94;;;19.29;100.00
11710;BME280;5911;51.036;6.972;2023-07-31T08:11:54;100159.28;;;19.41;100.00
11710;BME280;5911;51.036;6.972;2023-07-31T08:14:24;100165.25;;;19.43;100.00
11710;BME280;5911;51.036;6.972;2023-07-31T08:16:53;100162.19;;;19.46;100.00
11710;BME280;5911;51.036;6.972;2023-07-31T08:19:21;100151.88;;;19.43;100.00
11710;BME280;5911;51.036;6.972;2023-07-31T08:21:51;100135.34;;;19.33;100.00
11710;BME280;5911;51.036;6.972;2023-07-31T08:24:25;100146.16;;;19.25;100.00
11710;BME280;5911;51.036;6.972;2023-07-31T08:26:53;100143.94;;;19.28;100.00
11710;BME280;5911;51.036;6.972;2023-07-31T08:29:21;100132.03;;;19.31;100.00
11710;BME280;5911;51.036;6.972;2023-07-31T08:31:51;100120.56;;;19.37;100.00
11710;BME280;5911;51.036;6.972;2023-07-31T08:34:20;100113.59;;;19.43;100.00
11710;BME280;5911;51.036;6.972;2023-07-31T08:36:48;100121.81;;;19.41;100.00
11710;BME280;5911;51.036;6.972;2023-07-31T08:39:17;100110.91;;;19.43;100.00
11710;BME280;5911;51.036;6.972;2023-07-31T08:41:44;100108.66;;;19.40;100.00
11710;BME280;5911;51.036;6.972;2023-07-31T08:44:13;100104.09;;;19.40;100.00
11710;BME280;5911;51.036;6.972;2023-07-31T08:46:43;100111.19;;;19.48;100.00
11710;BME280;5911;51.036;6.972;2023-07-31T08:49:11;100101.69;;;19.45;100.00
11710;BME280;5911;51.036;6.972;2023-07-31T08:51:41;100108.69;;;19.46;100.00
11710;BME280;5911;51.036;6.972;2023-07-31T08:54:09;100101.66;;;19.39;100.00
11710;BME280;5911;51.036;6.972;2023-07-31T08:56:38;100101.69;;;19.45;100.00
11710;BME280;5911;51.036;6.972;2023-07-31T08:59:09;100110.50;;;19.39;100.00
11710;BME280;5911;51.036;6.972;2023-07-31T09:01:44;100108.44;;;19.41;100.00
11710;BME280;5911;51.036;6.972;2023-07-31T09:04:21;100119.16;;;19.41;100.00
11710;BME280;5911;51.036;6.972;2023-07-31T09:06:54;100114.78;;;19.55;100.00
11710;BME280;5911;51.036;6.972;2023-07-31T09:09:24;100114.53;;;19.56;100.00
11710;BME280;5911;51.036;6.972;2023-07-31T09:11:52;100106.31;;;19.51;100.00
11710;BME280;5911;51.036;6.972;2023-07-31T09:14:21;100119.38;;;19.67;100.00
11710;BME280;5911;51.036;6.972;2023-07-31T09:16:53;100131.00;;;19.53;100.00
11710;BME280;5911;51.036;6.972;2023-07-31T09:19:29;100121.16;;;19.54;100.00
11710;BME280;5911;51.036;6.972;2023-07-31T09:21:58;100124.66;;;19.54;100.00
11710;BME280;5911;51.036;6.972;2023-07-31T09:24:27;100121.53;;;19.51;100.00
11710;BME280;5911;51.036;6.972;2023-07-31T09:26:57;100132.66;;;19.54;100.00
11710;BME280;5911;51.036;6.972;2023-07-31T09:29:26;100115.59;;;19.55;100.00
11710;BME280;5911;51.036;6.972;2023-07-31T09:31:55;100114.53;;;19.56;100.00
11710;BME280;5911;51.036;6.972;2023-07-31T09:34:28;100118.50;;;19.60;100.00
11710;BME280;5911;51.036;6.972;2023-07-31T09:37:01;100101.59;;;19.60;100.00
11710;BME280;5911;51.036;6.972;2023-07-31T09:39:30;100107.41;;;19.63;100.00
11710;BME280;5911;51.036;6.972;2023-07-31T09:41:58;100093.25;;;19.70;100.00
11710;BME280;5911;51.036;6.972;2023-07-31T09:44:39;100084.59;;;19.67;100.00
11710;BME280;5911;51.036;6.972;2023-07-31T09:47:21;100093.31;;;19.83;100.00
11710;BME280;5911;51.036;6.972;2023-07-31T09:49:51;100088.97;;;19.82;100.00
11710;BME280;5911;51.036;6.972;2023-07-31T09:52:20;100069.34;;;19.68;100.00
11710;BME280;5911;51.036;6.972;2023-07-31T09:54:48;100080.56;;;19.85;100.00
11710;BME280;5911;51.036;6.972;2023-07-31T09:57:17;100085.91;;;19.85;100.00
11710;BME280;5911;51.036;6.972;2023-07-31T09:59:46;100084.66;;;19.87;100.00
11710;BME280;5911;51.036;6.972;2023-07-31T10:02:21;100078.91;;;19.84;100.00
11710;BME280;5911;51.036;6.972;2023-07-31T10:04:49;100078.09;;;19.90;100.00
11710;BME280;5911;51.036;6.972;2023-07-31T10:07:20;100064.50;;;19.85;100.00
11710;BME280;5911;51.036;6.972;2023-07-31T10:09:48;100075.03;;;19.93;100.00
11710;BME280;5911;51.036;6.972;2023-07-31T10:12:19;100071.09;;;19.89;100.00
11710;BME280;5911;51.036;6.972;2023-07-31T10:14:48;100056.25;;;19.86;100.00
11710;BME280;5911;51.036;6.972;2023-07-31T10:17:17;100069.09;;;19.97;100.00
11710;BME280;5911;51.036;6.972;2023-07-31T10:19:46;100067.03;;;19.99;100.00
11710;BME280;5911;51.036;6.972;2023-07-31T10:22:15;100076.50;;;20.02;100.00
11710;BME280;5911;51.036;6.972;2023-07-31T10:24:45;100074.06;;;20.07;100.00
11710;BME280;5911;51.036;6.972;2023-07-31T10:27:13;100081.06;;;20.08;100.00
11710;BME280;5911;51.036;6.972;2023-07-31T10:29:43;100088.06;;;20.09;100.00
11710;BME280;5911;51.036;6.972;2023-07-31T10:32:11;100069.28;;;19.96;100.00
11710;BME280;5911;51.036;6.972;2023-07-31T10:34:40;100071.13;;;20.02;100.00
11710;BME280;5911;51.036;6.972;2023-07-31T10:37:22;100087.19;;;19.95;100.00
11710;BME280;5911;51.036;6.972;2023-07-31T10:40:00;100075.66;;;19.95;100.00
11710;BME280;5911;51.036;6.972;2023-07-31T10:42:30;100081.16;;;19.87;100.00
11710;BME280;5911;51.036;6.972;2023-07-31T10:45:01;100075.59;;;19.82;100.00
11710;BME280;5911;51.036;6.972;2023-07-31T10:47:29;100069.63;;;19.80;100.00
11710;BME280;5911;51.036;6.972;2023-07-31T10:50:18;100075.59;;;19.82;100.00
11710;BME280;5911;51.036;6.972;2023-07-31T10:52:47;100066.34;;;19.84;100.00
11710;BME280;5911;51.036;6.972;2023-07-31T10:55:26;100065.34;;;19.92;100.00
11710;BME280;5911;51.036;6.972;2023-07-31T10:57:54;100069.91;;;19.98;100.00
11710;BME280;5911;51.036;6.972;2023-07-31T11:00:26;100070.69;;;19.92;100.00
11710;BME280;5911;51.036;6.972;2023-07-31T11:02:58;100074.03;;;20.00;100.00
11710;BME280;5911;51.036;6.972;2023-07-31T11:05:59;100072.78;;;19.96;100.00
11710;BME280;5911;51.036;6.972;2023-07-31T11:08:31;100030.03;;;19.69;100.00
11710;BME280;5911;51.036;6.972;2023-07-31T11:11:07;100075.25;;;19.98;100.00
11710;BME280;5911;51.036;6.972;2023-07-31T11:13:40;100062.91;;;20.03;100.00
11710;BME280;5911;51.036;6.972;2023-07-31T11:16:10;100058.41;;;20.11;100.00
11710;BME280;5911;51.036;6.972;2023-07-31T11:18:39;100065.88;;;20.15;100.00
11710;BME280;5911;51.036;6.972;2023-07-31T11:21:08;100064.25;;;20.27;100.00
11710;BME280;5911;51.036;6.972;2023-07-31T11:23:37;100057.91;;;20.48;100.00
11710;BME280;5911;51.036;6.972;2023-07-31T11:26:06;100039.63;;;20.85;100.00
11710;BME280;5911;51.036;6.972;2023-07-31T11:28:35;100052.41;;;20.96;100.00
11710;BME280;5911;51.036;6.972;2023-07-31T11:31:03;100061.06;;;20.98;100.00
11710;BME280;5911;51.036;6.972;2023-07-31T11:33:31;100053.22;;;20.96;100.00
11710;BME280;5911;51.036;6.972;2023-07-31T11:35:58;100059.44;;;20.90;100.00
11710;BME280;5911;51.036;6.972;2023-07-31T11:38:27;100061.91;;;20.85;100.00
11710;BME280;5911;51.036;6.972;2023-07-31T11:40:57;100057.78;;;20.76;100.00
11710;BME280;5911;51.036;6.972;2023-07-31T11:43:26;100055.09;;;20.76;100.00
11710;BME280;5911;51.036;6.972;2023-07-31T11:45:56;100039.19;;;20.81;100.00
11710;BME280;5911;51.036;6.972;2023-07-31T11:48:25;100051.38;;;20.84;100.00
11710;BME280;5911;51.036;6.972;2023-07-31T11:50:57;100049.94;;;20.81;100.00
11710;BME280;5911;51.036;6.972;2023-07-31T11:53:29;100033.00;;;20.81;100.00
11710;BME280;5911;51.036;6.972;2023-07-31T11:55:59;100047.47;;;20.86;100.00
11710;BME280;5911;51.036;6.972;2023-07-31T11:58:30;100047.47;;;20.86;100.00
11710;BME280;5911;51.036;6.972;2023-07-31T12:00:59;100036.75;;;20.86;100.00
11710;BME280;5911;51.036;6.972;2023-07-31T12:03:27;100038.38;;;20.81;100.00
11710;BME280;5911;51.036;6.972;2023-07-31T12:05:55;100033.84;;;20.81;100.00
11710;BME280;5911;51.036;6.972;2023-07-31T12:08:23;100033.84;;;20.81;100.00
11710;BME280;5911;51.036;6.972;2023-07-31T12:10:52;100026.84;;;20.74;100.00
11710;BME280;5911;51.036;6.972;2023-07-31T12:13:21;100026.84;;;20.74;100.00
11710;BME280;5911;51.036;6.972;2023-07-31T12:15:54;100029.09;;;20.70;100.00
11710;BME280;5911;51.036;6.972;2023-07-31T12:18:24;100031.38;;;20.73;100.00
11710;BME280;5911;51.036;6.972;2023-07-31T12:20:54;100022.72;;;20.84;100.00
11710;BME280;5911;51.036;6.972;2023-07-31T12:23:25;100039.00;;;20.83;100.00
11710;BME280;5911;51.036;6.972;2023-07-31T12:26:00;100040.44;;;20.79;100.00
11710;BME280;5911;51.036;6.972;2023-07-31T12:28:32;100000.03;;;20.67;100.00
11710;BME280;5911;51.036;6.972;2023-07-31T12:31:04;100029.31;;;20.82;100.00
11710;BME280;5911;51.036;6.972;2023-07-31T12:33:33;100030.78;;;20.78;100.00
11710;BME280;5911;51.036;6.972;2023-07-31T12:36:03;100034.47;;;20.70;100.00
11710;BME280;5911;51.036;6.972;2023-07-31T12:38:31;100030.13;;;20.69;100.00
11710;BME280;5911;51.036;6.972;2023-07-31T12:40:59;100025.59;;;20.76;100.00
11710;BME280;5911;51.036;6.972;2023-07-31T12:43:27;100030.94;;;20.83;100.00
11710;BME280;5911;51.036;6.972;2023-07-31T12:45:55;100026.41;;;20.83;100.00
11710;BME280;5911;51.036;6.972;2023-07-31T12:48:24;100028.91;;;20.85;100.00
11710;BME280;5911;51.036;6.972;2023-07-31T12:50:52;100024.38;;;20.92;100.00
11710;BME280;5911;51.036;6.972;2023-07-31T12:53:20;100032.19;;;20.93;100.00
11710;BME280;5911;51.036;6.972;2023-07-31T12:55:48;100022.06;;;20.95;100.00
11710;BME280;5911;51.036;6.972;2023-07-31T12:58:16;100011.97;;;20.97;100.00
11710;BME280;5911;51.036;6.972;2023-07-31T13:00:44;100004.75;;;20.98;100.00